createdAt,value
2023-01-18T00:01:13.907Z,58.13
2023-01-18T00:03:42.208Z,66.20
2023-01-18T00:06:11.121Z,83.03
2023-01-18T00:08:39.907Z,129.23
2023-01-18T00:11:07.352Z,97.40
2023-01-18T00:13:35.152Z,76.13
2023-01-18T00:16:07.569Z,64.07
2023-01-18T00:18:37.479Z,76.28
2023-01-18T00:21:07.472Z,75.95
2023-01-18T00:23:35.672Z,78.50
2023-01-18T00:26:06.486Z,81.53
2023-01-18T00:28:35.274Z,98.32
2023-01-18T00:31:15.264Z,99.15
2023-01-18T00:33:44.243Z,74.57
2023-01-18T00:36:12.856Z,63.38
2023-01-18T00:38:40.510Z,73.63
2023-01-18T00:41:07.959Z,61.97
2023-01-18T00:43:41.047Z,55.80
2023-01-18T00:46:13.207Z,50.15
2023-01-18T00:48:42.040Z,55.63
2023-01-18T00:51:14.588Z,42.25
2023-01-18T00:56:17.570Z,35.33
2023-01-18T00:58:45.225Z,45.25
2023-01-18T01:01:13.655Z,39.47
2023-01-18T01:03:59.601Z,44.40
2023-01-18T01:06:46.644Z,36.95
2023-01-18T01:09:26.150Z,30.75
2023-01-18T01:12:12.928Z,31.20
2023-01-18T01:15:01.914Z,33.70
2023-01-18T01:17:49.192Z,28.13
2023-01-18T01:20:35.356Z,28.23
2023-01-18T01:23:27.806Z,22.05
2023-01-18T01:26:27.607Z,20.00
2023-01-18T01:28:55.026Z,23.98
2023-01-18T01:31:22.210Z,18.48
2023-01-18T01:33:49.802Z,25.20
2023-01-18T01:36:20.825Z,19.00
2023-01-18T01:38:48.258Z,27.00
2023-01-18T01:41:26.646Z,21.60
2023-01-18T01:43:56.887Z,24.90
2023-01-18T01:46:31.750Z,21.23
2023-01-18T01:49:23.985Z,20.83
2023-01-18T01:52:00.623Z,21.92
2023-01-18T01:54:40.006Z,28.40
2023-01-18T01:57:15.742Z,22.65
2023-01-18T01:59:48.049Z,26.67
2023-01-18T02:02:15.413Z,22.33
2023-01-18T02:04:45.191Z,19.80
2023-01-18T02:07:13.545Z,18.90
2023-01-18T02:09:41.673Z,16.90
2023-01-18T02:12:08.990Z,17.50
2023-01-18T02:14:36.822Z,15.95
2023-01-18T02:17:20.837Z,17.83
2023-01-18T02:20:07.188Z,21.95
2023-01-18T02:22:59.276Z,16.33
2023-01-18T02:25:48.565Z,14.55
2023-01-18T02:28:37.591Z,22.00
2023-01-18T02:31:05.201Z,18.58
2023-01-18T02:34:07.262Z,15.23
2023-01-18T02:36:44.821Z,16.15
2023-01-18T02:39:53.615Z,18.40
2023-01-18T02:42:42.737Z,19.17
2023-01-18T02:45:52.665Z,18.25
2023-01-18T02:48:23.150Z,15.75
2023-01-18T02:50:51.200Z,20.08
2023-01-18T02:53:18.949Z,14.25
2023-01-18T02:55:53.191Z,21.88
2023-01-18T02:58:29.882Z,21.92
2023-01-18T03:01:10.951Z,19.80
2023-01-18T03:03:43.150Z,19.30
2023-01-18T03:06:10.497Z,21.80
2023-01-18T03:08:43.598Z,26.92
2023-01-18T03:11:45.218Z,22.48
2023-01-18T03:14:18.693Z,26.33
2023-01-18T03:17:15.513Z,26.95
2023-01-18T03:20:05.368Z,28.23
2023-01-18T03:23:08.016Z,26.45
2023-01-18T03:28:54.535Z,24.85
2023-01-18T03:31:52.112Z,28.95
2023-01-18T03:34:39.750Z,26.00
2023-01-18T03:37:22.160Z,23.95
2023-01-18T03:40:01.703Z,27.15
2023-01-18T03:42:37.345Z,29.67
2023-01-18T03:45:25.098Z,25.95
2023-01-18T03:47:52.967Z,23.67
2023-01-18T03:50:27.162Z,24.70
2023-01-18T03:52:59.015Z,25.15
2023-01-18T03:55:31.719Z,25.58
2023-01-18T03:58:03.174Z,26.35
2023-01-18T04:00:31.569Z,26.30
2023-01-18T04:02:59.497Z,25.00
2023-01-18T04:05:27.009Z,26.60
2023-01-18T04:07:54.387Z,18.27
2023-01-18T04:10:21.647Z,18.58
2023-01-18T04:12:49.012Z,21.98
2023-01-18T04:15:17.207Z,19.70
2023-01-18T04:17:44.656Z,21.10
2023-01-18T04:20:12.010Z,18.05
2023-01-18T04:22:39.436Z,19.98
2023-01-18T04:25:06.933Z,24.40
2023-01-18T04:27:34.468Z,28.92
2023-01-18T04:30:01.593Z,20.88
2023-01-18T04:32:29.100Z,21.90
2023-01-18T04:34:56.202Z,18.25
2023-01-18T04:37:30.310Z,23.00
2023-01-18T04:39:58.129Z,22.75
2023-01-18T04:42:25.997Z,22.42
2023-01-18T04:44:53.529Z,24.30
2023-01-18T04:47:20.958Z,22.35
2023-01-18T04:49:48.206Z,20.85
2023-01-18T04:52:15.667Z,24.20
2023-01-18T04:54:43.807Z,24.98
2023-01-18T04:57:11.322Z,23.50
2023-01-18T04:59:39.308Z,24.38
2023-01-18T05:02:06.822Z,29.50
2023-01-18T05:04:34.002Z,24.08
2023-01-18T05:07:02.311Z,27.17
2023-01-18T05:09:29.431Z,24.52
2023-01-18T05:11:56.857Z,30.75
2023-01-18T05:14:23.999Z,24.08
2023-01-18T05:16:51.392Z,23.95
2023-01-18T05:19:18.580Z,26.30
2023-01-18T05:21:45.962Z,32.65
2023-01-18T05:24:13.082Z,30.92
2023-01-18T05:26:40.500Z,28.42
2023-01-18T05:29:07.994Z,32.60
2023-01-18T05:31:35.576Z,24.85
2023-01-18T05:34:02.912Z,26.30
2023-01-18T05:36:30.527Z,27.85
2023-01-18T05:38:57.624Z,31.60
2023-01-18T05:41:25.091Z,27.95
2023-01-18T05:43:52.208Z,29.25
2023-01-18T05:46:19.635Z,30.70
2023-01-18T05:48:46.811Z,28.80
2023-01-18T05:51:14.403Z,30.85
2023-01-18T05:53:41.782Z,28.10
2023-01-18T05:56:09.669Z,30.38
2023-01-18T05:58:38.360Z,30.15
2023-01-18T06:01:10.185Z,30.20
2023-01-18T06:03:37.402Z,34.83
2023-01-18T06:06:05.201Z,33.88
2023-01-18T06:08:33.018Z,30.70
2023-01-18T06:11:00.776Z,27.90
2023-01-18T06:13:30.906Z,29.60
2023-01-18T06:15:59.846Z,30.75
2023-01-18T06:18:29.226Z,29.52
2023-01-18T06:21:00.996Z,24.98
2023-01-18T06:23:29.741Z,30.85
2023-01-18T06:25:57.137Z,31.02
2023-01-18T06:28:24.291Z,35.13
2023-01-18T06:30:56.416Z,30.38
2023-01-18T06:33:24.249Z,35.25
2023-01-18T06:35:52.312Z,35.75
2023-01-18T06:38:20.622Z,42.47
2023-01-18T06:40:48.167Z,46.42
2023-01-18T06:43:16.074Z,41.97
2023-01-18T06:45:43.822Z,41.95
2023-01-18T06:48:10.975Z,47.42
2023-01-18T06:50:38.540Z,39.35
2023-01-18T06:53:05.638Z,49.70
2023-01-18T06:55:34.696Z,44.55
2023-01-18T06:58:02.671Z,44.08
2023-01-18T07:00:30.181Z,53.08
2023-01-18T07:02:58.566Z,45.72
2023-01-18T07:05:26.246Z,44.85
2023-01-18T07:07:53.401Z,49.55
2023-01-18T07:10:20.843Z,42.55
2023-01-18T07:12:48.933Z,51.38
2023-01-18T07:15:21.922Z,51.35
2023-01-18T07:17:50.473Z,45.30
2023-01-18T07:20:18.770Z,44.10
2023-01-18T07:22:45.999Z,48.15
2023-01-18T07:25:13.573Z,43.80
2023-01-18T07:27:44.294Z,49.00
2023-01-18T07:30:12.491Z,53.50
2023-01-18T07:32:40.330Z,49.05
2023-01-18T07:35:08.139Z,45.83
2023-01-18T07:37:36.098Z,51.67
2023-01-18T07:40:03.993Z,50.95
2023-01-18T07:42:31.234Z,52.25
2023-01-18T07:44:59.755Z,55.60
2023-01-18T07:47:27.088Z,48.55
2023-01-18T07:49:54.733Z,56.58
2023-01-18T07:52:21.863Z,52.88
2023-01-18T07:54:49.299Z,51.08
2023-01-18T07:57:16.406Z,51.08
2023-01-18T07:59:43.785Z,53.80
2023-01-18T08:02:13.476Z,50.63
2023-01-18T08:04:41.937Z,49.38
2023-01-18T08:07:09.619Z,43.90
2023-01-18T08:09:37.100Z,41.95
2023-01-18T08:12:04.351Z,42.78
2023-01-18T08:14:31.715Z,42.10
2023-01-18T08:16:58.972Z,44.97
2023-01-18T08:19:26.458Z,41.95
2023-01-18T08:21:53.639Z,43.53
2023-01-18T08:24:21.063Z,39.65
2023-01-18T08:26:48.312Z,40.95
2023-01-18T08:29:15.673Z,41.85
2023-01-18T08:31:42.786Z,44.17
2023-01-18T08:34:10.303Z,42.45
2023-01-18T08:36:37.484Z,34.22
2023-01-18T08:39:05.052Z,32.10
2023-01-18T08:41:32.322Z,39.30
2023-01-18T08:44:00.177Z,37.22
2023-01-18T08:46:28.487Z,34.08
2023-01-18T08:48:57.763Z,36.75
2023-01-18T08:51:26.235Z,40.78
2023-01-18T08:53:57.488Z,35.55
2023-01-18T08:56:24.980Z,36.58
2023-01-18T08:58:52.520Z,33.40
2023-01-18T09:01:20.398Z,34.80
2023-01-18T09:03:48.830Z,34.50
2023-01-18T09:06:16.862Z,30.45
2023-01-18T09:08:47.672Z,29.88
2023-01-18T09:11:15.943Z,28.15
2023-01-18T09:13:59.312Z,31.00
2023-01-18T09:16:28.093Z,27.45
2023-01-18T09:18:56.406Z,27.92
2023-01-18T09:21:24.054Z,32.67
2023-01-18T09:23:51.456Z,36.55
2023-01-18T09:26:21.085Z,30.50
2023-01-18T09:28:52.490Z,36.72
2023-01-18T09:31:25.857Z,38.65
2023-01-18T09:33:55.350Z,35.75
2023-01-18T09:36:26.733Z,42.58
2023-01-18T09:38:57.425Z,52.92
2023-01-18T09:41:44.452Z,52.08
2023-01-18T09:44:29.409Z,36.58
2023-01-18T09:47:04.867Z,37.72
2023-01-18T09:49:46.482Z,39.22
2023-01-18T09:52:25.407Z,32.40
2023-01-18T09:55:13.045Z,38.90
2023-01-18T09:57:58.623Z,57.15
2023-01-18T10:00:33.423Z,113.88
2023-01-18T10:03:08.499Z,76.38
2023-01-18T10:05:53.839Z,132.13
2023-01-18T10:08:25.746Z,74.38
2023-01-18T10:11:13.515Z,50.50
2023-01-18T10:13:53.869Z,65.63
2023-01-18T10:16:21.357Z,62.08
2023-01-18T10:18:53.326Z,50.97
2023-01-18T10:21:33.849Z,58.45
2023-01-18T10:24:29.006Z,76.18
2023-01-18T10:27:13.042Z,51.47
2023-01-18T10:29:42.752Z,56.85
2023-01-18T10:32:17.697Z,53.40
2023-01-18T10:34:49.865Z,46.53
2023-01-18T10:40:03.238Z,55.28
2023-01-18T10:42:45.646Z,60.67
2023-01-18T10:45:32.950Z,84.75
2023-01-18T10:48:30.289Z,58.42
2023-01-18T10:51:06.097Z,66.03
2023-01-18T10:53:36.542Z,70.80
2023-01-18T10:56:17.277Z,71.30
2023-01-18T10:58:46.470Z,69.88
2023-01-18T11:01:27.571Z,69.63
2023-01-18T11:04:05.917Z,71.20
2023-01-18T11:06:56.727Z,47.70
2023-01-18T11:09:51.511Z,57.03
2023-01-18T11:12:45.634Z,58.83
2023-01-18T11:15:15.879Z,50.45
2023-01-18T11:18:10.225Z,59.78
2023-01-18T11:20:50.699Z,45.70
2023-01-18T11:23:21.881Z,93.78
2023-01-18T11:25:52.088Z,58.00
2023-01-18T11:28:40.131Z,54.75
2023-01-18T11:31:15.174Z,45.38
2023-01-18T11:33:59.958Z,52.75
2023-01-18T11:36:43.230Z,90.18
2023-01-18T11:39:26.234Z,56.17
2023-01-18T11:42:35.042Z,69.82
2023-01-18T11:45:19.914Z,58.38
2023-01-18T11:48:23.307Z,49.42
2023-01-18T11:51:00.872Z,45.08
2023-01-18T11:54:04.586Z,83.80
2023-01-18T11:56:41.138Z,81.00
2023-01-18T11:59:32.079Z,66.40
2023-01-18T12:02:10.600Z,57.65
2023-01-18T12:04:56.536Z,47.85
2023-01-18T12:07:54.385Z,53.83
2023-01-18T12:10:27.876Z,53.58
2023-01-18T12:12:54.947Z,39.90
2023-01-18T12:15:49.477Z,47.67
2023-01-18T12:18:31.599Z,59.10
2023-01-18T12:21:15.979Z,50.88
2023-01-18T12:23:49.190Z,43.35
2023-01-18T12:26:41.409Z,42.30
2023-01-18T12:29:24.241Z,27.73
2023-01-18T12:32:20.468Z,26.95
2023-01-18T12:34:58.326Z,29.98
2023-01-18T12:37:40.529Z,42.95
2023-01-18T12:40:16.184Z,34.13
2023-01-18T12:43:14.431Z,31.30
2023-01-18T12:46:01.238Z,34.38
2023-01-18T12:48:40.843Z,30.63
2023-01-18T12:51:14.436Z,33.53
2023-01-18T12:54:11.379Z,26.23
2023-01-18T12:56:42.906Z,29.10
2023-01-18T12:59:20.506Z,33.10
2023-01-18T13:02:16.344Z,45.05
2023-01-18T13:04:50.380Z,40.08
2023-01-18T13:07:25.389Z,42.95
2023-01-18T13:09:53.461Z,41.97
2023-01-18T13:12:20.722Z,39.08
2023-01-18T13:15:26.479Z,34.97
2023-01-18T13:18:08.115Z,44.65
2023-01-18T13:20:44.923Z,46.13
2023-01-18T13:23:59.976Z,38.80
2023-01-18T13:26:29.844Z,51.92
2023-01-18T13:29:19.963Z,40.55
2023-01-18T13:31:47.806Z,43.22
2023-01-18T13:34:31.656Z,48.88
2023-01-18T13:37:14.009Z,49.38
2023-01-18T13:39:47.730Z,56.70
2023-01-18T13:42:20.985Z,44.65
2023-01-18T13:44:50.092Z,43.33
2023-01-18T13:47:36.111Z,41.75
2023-01-18T13:50:05.233Z,33.72
2023-01-18T13:52:35.697Z,38.42
2023-01-18T13:55:23.177Z,32.63
2023-01-18T13:57:55.525Z,50.50
2023-01-18T14:00:26.169Z,35.85
2023-01-18T14:03:03.935Z,33.42
2023-01-18T14:05:38.730Z,34.13
2023-01-18T14:08:06.635Z,32.65
2023-01-18T14:10:37.819Z,39.28
2023-01-18T14:13:12.209Z,29.35
2023-01-18T14:15:42.046Z,31.35
2023-01-18T14:18:30.170Z,31.88
2023-01-18T14:21:22.209Z,35.72
2023-01-18T14:24:07.918Z,33.83
2023-01-18T14:26:38.259Z,34.67
2023-01-18T14:29:17.865Z,34.60
2023-01-18T14:31:55.885Z,38.40
2023-01-18T14:34:38.043Z,36.08
2023-01-18T14:37:30.862Z,36.10
2023-01-18T14:40:07.549Z,34.38
2023-01-18T14:42:38.256Z,35.55
2023-01-18T14:45:06.757Z,37.13
2023-01-18T14:47:34.829Z,36.63
2023-01-18T14:50:04.351Z,39.30
2023-01-18T14:52:34.457Z,38.25
2023-01-18T14:55:02.618Z,37.95
2023-01-18T14:57:30.032Z,55.65
2023-01-18T15:00:16.310Z,51.58
2023-01-18T15:02:43.893Z,40.78
2023-01-18T15:05:13.982Z,43.78
2023-01-18T15:07:41.488Z,53.05
2023-01-18T15:10:09.989Z,52.75
2023-01-18T15:12:38.844Z,65.82
2023-01-18T15:15:23.098Z,73.38
2023-01-18T15:17:50.573Z,88.60
2023-01-18T15:20:18.167Z,84.60
2023-01-18T15:22:45.383Z,70.88
2023-01-18T15:25:30.686Z,62.67
2023-01-18T15:28:11.718Z,63.67
2023-01-18T15:30:54.251Z,62.85
2023-01-18T15:33:24.945Z,59.42
2023-01-18T15:36:00.580Z,54.67
2023-01-18T15:38:28.294Z,59.65
2023-01-18T15:41:09.651Z,54.03
2023-01-18T15:43:42.008Z,50.55
2023-01-18T15:46:14.013Z,57.95
2023-01-18T15:48:56.061Z,54.60
2023-01-18T15:51:43.802Z,57.70
2023-01-18T15:54:22.952Z,61.35
2023-01-18T15:56:50.711Z,62.30
2023-01-18T15:59:22.541Z,59.78
2023-01-18T16:02:18.754Z,63.20
2023-01-18T16:04:46.475Z,96.35
2023-01-18T16:07:37.805Z,62.72
2023-01-18T16:10:30.360Z,60.10
2023-01-18T16:13:35.923Z,63.28
2023-01-18T16:16:14.189Z,74.45
2023-01-18T16:18:46.348Z,110.57
2023-01-18T16:21:22.527Z,106.72
2023-01-18T16:23:52.200Z,120.75
2023-01-18T16:26:24.289Z,92.72
2023-01-18T16:28:51.960Z,69.28
2023-01-18T16:31:22.964Z,67.82
2023-01-18T16:33:50.521Z,133.07
2023-01-18T16:36:19.742Z,96.03
2023-01-18T16:38:47.201Z,85.45
2023-01-18T16:41:15.014Z,101.13
2023-01-18T16:43:43.877Z,98.22
2023-01-18T16:46:11.844Z,95.53
2023-01-18T16:48:39.372Z,120.63
2023-01-18T16:51:13.373Z,90.50
2023-01-18T16:53:40.886Z,86.60
2023-01-18T16:56:09.448Z,89.38
2023-01-18T16:58:37.048Z,88.53
2023-01-18T17:01:15.769Z,86.20
2023-01-18T17:03:44.662Z,92.45
2023-01-18T17:06:19.983Z,92.72
2023-01-18T17:08:49.150Z,95.60
2023-01-18T17:11:17.545Z,84.18
2023-01-18T17:13:45.064Z,76.07
2023-01-18T17:16:18.652Z,81.07
2023-01-18T17:18:46.618Z,80.85
2023-01-18T17:21:14.239Z,84.40
2023-01-18T17:23:41.744Z,87.90
2023-01-18T17:26:13.736Z,82.65
2023-01-18T17:28:41.152Z,80.07
2023-01-18T17:31:08.666Z,76.95
2023-01-18T17:33:39.268Z,79.28
2023-01-18T17:36:08.906Z,83.30
2023-01-18T17:38:37.191Z,75.80
2023-01-18T17:41:05.020Z,76.63
2023-01-18T17:43:34.693Z,81.93
2023-01-18T17:46:07.671Z,77.95
2023-01-18T17:48:35.456Z,85.28
2023-01-18T17:51:08.872Z,80.13
2023-01-18T17:53:37.795Z,77.03
2023-01-18T17:56:13.001Z,80.18
2023-01-18T17:58:41.018Z,84.30
2023-01-18T18:01:11.067Z,97.72
2023-01-18T18:03:40.331Z,86.82
2023-01-18T18:06:07.965Z,93.95
2023-01-18T18:08:35.921Z,94.32
2023-01-18T18:11:07.122Z,129.20
2023-01-18T18:13:34.672Z,147.65
2023-01-18T18:16:02.107Z,106.13
2023-01-18T18:18:29.624Z,111.57
2023-01-18T18:20:59.622Z,118.13
2023-01-18T18:23:28.220Z,102.65
2023-01-18T18:25:56.374Z,116.00
2023-01-18T18:28:25.496Z,114.50
2023-01-18T18:30:53.778Z,107.25
2023-01-18T18:33:22.978Z,105.85
2023-01-18T18:35:51.245Z,92.68
2023-01-18T18:38:22.603Z,105.10
2023-01-18T18:40:51.179Z,107.20
2023-01-18T18:43:19.188Z,96.43
2023-01-18T18:45:47.585Z,98.75
2023-01-18T18:48:15.125Z,112.68
2023-01-18T18:50:42.316Z,114.47
2023-01-18T18:53:09.720Z,96.80
2023-01-18T18:55:36.991Z,105.72
2023-01-18T18:58:05.742Z,99.20
2023-01-18T19:00:32.931Z,91.95
2023-01-18T19:03:03.038Z,91.47
2023-01-18T19:05:31.910Z,99.43
2023-01-18T19:07:59.740Z,98.07
2023-01-18T19:10:30.290Z,100.30
2023-01-18T19:12:59.493Z,93.15
2023-01-18T19:15:26.869Z,90.20
2023-01-18T19:17:54.347Z,98.18
2023-01-18T19:20:21.901Z,103.50
2023-01-18T19:22:50.348Z,96.18
2023-01-18T19:25:18.160Z,106.85
2023-01-18T19:27:45.769Z,106.95
2023-01-18T19:30:19.056Z,91.75
2023-01-18T19:32:48.168Z,94.95
2023-01-18T19:35:16.361Z,106.38
2023-01-18T19:37:45.164Z,103.88
2023-01-18T19:40:13.605Z,94.65
2023-01-18T19:42:41.255Z,91.45
2023-01-18T19:45:11.480Z,98.13
2023-01-18T19:47:42.036Z,89.70
2023-01-18T19:50:09.856Z,91.93
2023-01-18T19:52:37.425Z,97.32
2023-01-18T19:55:05.325Z,92.60
2023-01-18T19:57:33.033Z,95.50
2023-01-18T20:00:04.016Z,92.45
2023-01-18T20:02:40.630Z,102.05
2023-01-18T20:05:08.301Z,96.35
2023-01-18T20:07:38.903Z,107.15
2023-01-18T20:10:07.575Z,101.32
2023-01-18T20:12:35.127Z,94.70
2023-01-18T20:15:02.740Z,99.20
2023-01-18T20:17:30.923Z,104.22
2023-01-18T20:19:58.065Z,108.25
2023-01-18T20:22:25.492Z,101.97
2023-01-18T20:24:52.653Z,99.70
2023-01-18T20:27:20.184Z,90.68
2023-01-18T20:29:47.528Z,96.97
2023-01-18T20:32:16.971Z,98.68
2023-01-18T20:34:46.863Z,96.05
2023-01-18T20:37:15.929Z,103.95
2023-01-18T20:39:43.111Z,111.20
2023-01-18T20:42:10.793Z,104.28
2023-01-18T20:44:38.197Z,114.32
2023-01-18T20:47:05.715Z,110.60
2023-01-18T20:49:38.440Z,110.57
2023-01-18T20:52:07.471Z,109.93
2023-01-18T20:54:36.281Z,118.97
2023-01-18T20:57:05.645Z,116.63
2023-01-18T20:59:33.251Z,125.93
2023-01-18T21:02:01.945Z,129.02
2023-01-18T21:04:29.352Z,144.80
2023-01-18T21:06:59.630Z,133.43
2023-01-18T21:09:26.884Z,123.28
2023-01-18T21:11:54.392Z,199.63
2023-01-18T21:14:21.560Z,164.20
2023-01-18T21:16:49.168Z,125.40
2023-01-18T21:19:16.447Z,124.47
2023-01-18T21:21:44.639Z,131.32
2023-01-18T21:24:11.889Z,127.05
2023-01-18T21:26:39.461Z,135.13
2023-01-18T21:29:06.735Z,128.77
2023-01-18T21:31:34.310Z,117.47
2023-01-18T21:34:01.479Z,112.28
2023-01-18T21:36:28.900Z,104.70
2023-01-18T21:38:56.266Z,97.97
2023-01-18T21:41:42.481Z,100.43
2023-01-18T21:44:30.902Z,98.72
2023-01-18T21:46:59.016Z,102.55
2023-01-18T21:50:15.328Z,105.78
2023-01-18T21:52:51.173Z,98.85
2023-01-18T21:55:19.314Z,93.00
2023-01-18T21:58:06.665Z,100.10
2023-01-18T22:00:39.079Z,103.32
2023-01-18T22:03:06.924Z,83.22
2023-01-18T22:05:34.123Z,100.05
2023-01-18T22:08:01.946Z,114.20
2023-01-18T22:10:29.367Z,109.85
2023-01-18T22:12:56.903Z,125.07
2023-01-18T22:15:24.213Z,89.47
2023-01-18T22:17:51.710Z,81.97
2023-01-18T22:20:18.972Z,82.60
2023-01-18T22:22:46.598Z,121.85
2023-01-18T22:25:13.971Z,138.35
2023-01-18T22:27:41.387Z,174.27
2023-01-18T22:30:09.420Z,142.18
2023-01-18T22:32:36.816Z,110.97
2023-01-18T22:35:04.172Z,148.75
2023-01-18T22:37:32.004Z,183.43
2023-01-18T22:39:59.180Z,143.93
2023-01-18T22:42:27.479Z,101.13
2023-01-18T22:44:54.607Z,95.88
2023-01-18T22:47:22.107Z,104.93
2023-01-18T22:49:49.304Z,161.45
2023-01-18T22:52:16.727Z,98.68
2023-01-18T22:54:43.975Z,125.53
2023-01-18T22:57:11.345Z,91.72
2023-01-18T22:59:39.287Z,127.38
2023-01-18T23:02:06.771Z,136.07
2023-01-18T23:04:34.420Z,159.75
2023-01-18T23:07:02.096Z,103.25
2023-01-18T23:09:29.489Z,115.95
2023-01-18T23:11:57.026Z,88.28
2023-01-18T23:14:42.617Z,102.28
2023-01-18T23:17:30.138Z,105.00
2023-01-18T23:19:57.358Z,151.73
2023-01-18T23:22:24.859Z,86.60
2023-01-18T23:24:52.007Z,77.68
2023-01-18T23:27:19.610Z,75.60
2023-01-18T23:29:51.473Z,167.60
2023-01-18T23:32:19.001Z,116.97
2023-01-18T23:34:47.794Z,143.90
2023-01-18T23:37:15.214Z,94.50
2023-01-18T23:40:00.744Z,100.20
2023-01-18T23:42:46.447Z,76.38
2023-01-18T23:45:32.483Z,70.68
2023-01-18T23:48:32.000Z,93.50
2023-01-18T23:51:18.049Z,79.50
2023-01-18T23:54:04.401Z,111.28
2023-01-18T23:56:32.391Z,128.93
2023-01-18T23:59:00.115Z,83.00
